sensor_id;sensor_type;location;lat;lon;timestamp;pressure;altitude;pressure_sealevel;temperature;humidity
19759;BME280;10038;42.662;23.278;2022-09-25T00:01:30;71613.28;;;8.74;86.78
19759;BME280;10038;42.662;23.278;2022-09-25T00:03:57;71605.03;;;8.65;87.20
19759;BME280;10038;42.662;23.278;2022-09-25T00:06:25;71620.03;;;8.78;86.87
19759;BME280;10038;42.662;23.278;2022-09-25T00:08:52;71631.78;;;8.83;86.77
19759;BME280;10038;42.662;23.278;2022-09-25T00:11:21;71573.88;;;8.38;87.46
19759;BME280;10038;42.662;23.278;2022-09-25T00:13:49;71598.84;;;8.62;87.32
19759;BME280;10038;42.662;23.278;2022-09-25T00:16:19;71606.16;;;8.66;87.62
19759;BME280;10038;42.662;23.278;2022-09-25T00:18:46;71613.09;;;8.72;87.38
19759;BME280;10038;42.662;23.278;2022-09-25T00:21:30;71592.88;;;8.54;87.05
19759;BME280;10038;42.662;23.278;2022-09-25T00:23:58;71591.53;;;8.58;87.50
19759;BME280;10038;42.662;23.278;2022-09-25T00:26:26;71583.09;;;8.46;87.59
19759;BME280;10038;42.662;23.278;2022-09-25T00:28:54;71565.97;;;8.33;88.31
19759;BME280;10038;42.662;23.278;2022-09-25T00:31:23;71565.22;;;8.30;88.63
19759;BME280;10038;42.662;23.278;2022-09-25T00:33:50;71573.28;;;8.37;88.11
19759;BME280;10038;42.662;23.278;2022-09-25T00:36:17;71588.50;;;8.46;88.24
19759;BME280;10038;42.662;23.278;2022-09-25T00:38:43;71580.78;;;8.44;88.29
19759;BME280;10038;42.662;23.278;2022-09-25T00:41:12;71577.72;;;8.39;88.31
19759;BME280;10038;42.662;23.278;2022-09-25T00:43:41;71549.03;;;8.16;89.15
19759;BME280;10038;42.662;23.278;2022-09-25T00:46:11;71556.53;;;8.22;88.87
19759;BME280;10038;42.662;23.278;2022-09-25T00:48:47;71540.22;;;8.06;89.37
19759;BME280;10038;42.662;23.278;2022-09-25T00:51:18;71551.34;;;8.18;89.27
19759;BME280;10038;42.662;23.278;2022-09-25T00:53:46;71537.31;;;8.03;89.68
19759;BME280;10038;42.662;23.278;2022-09-25T00:56:14;71516.19;;;7.87;89.90
19759;BME280;10038;42.662;23.278;2022-09-25T00:58:41;71528.84;;;7.98;89.65
19759;BME280;10038;42.662;23.278;2022-09-25T01:01:08;71546.16;;;8.13;89.38
19759;BME280;10038;42.662;23.278;2022-09-25T01:03:36;71530.03;;;7.99;90.00
19759;BME280;10038;42.662;23.278;2022-09-25T01:06:07;71506.94;;;7.79;90.77
19759;BME280;10038;42.662;23.278;2022-09-25T01:08:35;71474.47;;;7.48;90.52
19759;BME280;10038;42.662;23.278;2022-09-25T01:11:03;71514.25;;;7.90;90.45
19759;BME280;10038;42.662;23.278;2022-09-25T01:13:30;71523.28;;;7.96;89.71
19759;BME280;10038;42.662;23.278;2022-09-25T01:16:00;71517.13;;;7.86;90.23
19759;BME280;10038;42.662;23.278;2022-09-25T01:18:45;71496.16;;;7.72;91.17
19759;BME280;10038;42.662;23.278;2022-09-25T01:21:35;71495.44;;;7.69;91.36
19759;BME280;10038;42.662;23.278;2022-09-25T01:24:36;71486.56;;;7.66;91.23
19759;BME280;10038;42.662;23.278;2022-09-25T01:30:18;71470.63;;;7.47;93.10
19759;BME280;10038;42.662;23.278;2022-09-25T01:32:57;71481.94;;;7.62;92.55
19759;BME280;10038;42.662;23.278;2022-09-25T01:35:34;71495.44;;;7.69;92.29
19759;BME280;10038;42.662;23.278;2022-09-25T01:38:10;71494.28;;;7.68;92.23
19759;BME280;10038;42.662;23.278;2022-09-25T01:40:45;71494.28;;;7.68;91.99
19759;BME280;10038;42.662;23.278;2022-09-25T01:43:16;71476.59;;;7.55;93.10
19759;BME280;10038;42.662;23.278;2022-09-25T01:45:50;71475.25;;;7.51;92.94
19759;BME280;10038;42.662;23.278;2022-09-25T01:48:22;71461.97;;;7.40;93.43
19759;BME280;10038;42.662;23.278;2022-09-25T01:50:54;71457.38;;;7.36;93.60
19759;BME280;10038;42.662;23.278;2022-09-25T01:53:25;71425.47;;;7.12;92.74
19759;BME280;10038;42.662;23.278;2022-09-25T01:55:57;71396.31;;;6.82;93.69
19759;BME280;10038;42.662;23.278;2022-09-25T01:58:30;71458.16;;;7.32;93.93
19759;BME280;10038;42.662;23.278;2022-09-25T02:01:04;71478.13;;;7.54;92.80
19759;BME280;10038;42.662;23.278;2022-09-25T02:03:36;71456.22;;;7.35;93.86
19759;BME280;10038;42.662;23.278;2022-09-25T02:06:05;71456.22;;;7.35;93.82
19759;BME280;10038;42.662;23.278;2022-09-25T02:08:38;71451.03;;;7.30;93.75
19759;BME280;10038;42.662;23.278;2022-09-25T02:11:08;71445.84;;;7.26;94.23
19759;BME280;10038;42.662;23.278;2022-09-25T02:13:38;71435.50;;;7.17;94.60
19759;BME280;10038;42.662;23.278;2022-09-25T02:16:11;71442.38;;;7.23;94.70
19759;BME280;10038;42.662;23.278;2022-09-25T02:18:41;71431.84;;;7.11;95.50
19759;BME280;10038;42.662;23.278;2022-09-25T02:21:31;71438.94;;;7.20;95.50
19759;BME280;10038;42.662;23.278;2022-09-25T02:24:04;71455.06;;;7.34;94.74
19759;BME280;10038;42.662;23.278;2022-09-25T02:26:34;71455.44;;;7.39;94.32
19759;BME280;10038;42.662;23.278;2022-09-25T02:29:03;71407.06;;;6.89;96.48
19759;BME280;10038;42.662;23.278;2022-09-25T02:31:35;71406.69;;;6.91;96.69
19759;BME280;10038;42.662;23.278;2022-09-25T02:34:03;71422.81;;;7.05;96.34
19759;BME280;10038;42.662;23.278;2022-09-25T02:36:30;71421.69;;;6.97;96.47
19759;BME280;10038;42.662;23.278;2022-09-25T02:38:59;71420.50;;;7.03;96.24
19759;BME280;10038;42.662;23.278;2022-09-25T02:41:37;71354.81;;;6.46;95.43
19759;BME280;10038;42.662;23.278;2022-09-25T02:44:15;71446.25;;;7.24;94.49
19759;BME280;10038;42.662;23.278;2022-09-25T02:46:52;71424.94;;;7.05;95.29
19759;BME280;10038;42.662;23.278;2022-09-25T02:49:30;71403.22;;;6.88;95.34
19759;BME280;10038;42.662;23.278;2022-09-25T02:52:04;71459.69;;;7.38;94.20
19759;BME280;10038;42.662;23.278;2022-09-25T02:54:41;71435.69;;;7.12;94.97
19759;BME280;10038;42.662;23.278;2022-09-25T02:57:15;71462.78;;;7.36;94.64
19759;BME280;10038;42.662;23.278;2022-09-25T02:59:48;71459.69;;;7.38;94.77
19759;BME280;10038;42.662;23.278;2022-09-25T03:02:18;71454.50;;;7.33;95.22
19759;BME280;10038;42.662;23.278;2022-09-25T03:04:46;71476.00;;;7.54;94.12
19759;BME280;10038;42.662;23.278;2022-09-25T03:07:14;71472.00;;;7.44;94.60
19759;BME280;10038;42.662;23.278;2022-09-25T03:09:44;71464.66;;;7.47;94.60
19759;BME280;10038;42.662;23.278;2022-09-25T03:12:11;71458.72;;;7.39;94.65
19759;BME280;10038;42.662;23.278;2022-09-25T03:14:39;71450.06;;;7.32;95.03
19759;BME280;10038;42.662;23.278;2022-09-25T03:17:06;71473.72;;;7.45;94.81
19759;BME280;10038;42.662;23.278;2022-09-25T03:19:36;71451.59;;;7.31;95.50
19759;BME280;10038;42.662;23.278;2022-09-25T03:22:03;71455.06;;;7.34;95.74
19759;BME280;10038;42.662;23.278;2022-09-25T03:24:30;71408.41;;;6.93;95.37
19759;BME280;10038;42.662;23.278;2022-09-25T03:26:57;71443.16;;;7.26;96.09
19759;BME280;10038;42.662;23.278;2022-09-25T03:29:24;71452.00;;;7.29;96.00
19759;BME280;10038;42.662;23.278;2022-09-25T03:31:51;71457.38;;;7.36;95.65
19759;BME280;10038;42.662;23.278;2022-09-25T03:34:18;71471.59;;;7.46;95.54
19759;BME280;10038;42.662;23.278;2022-09-25T03:36:46;71467.38;;;7.47;95.35
19759;BME280;10038;42.662;23.278;2022-09-25T03:39:14;71472.38;;;7.49;95.22
19759;BME280;10038;42.662;23.278;2022-09-25T03:41:42;71451.59;;;7.31;96.42
19759;BME280;10038;42.662;23.278;2022-09-25T03:44:09;71448.16;;;7.28;96.13
19759;BME280;10038;42.662;23.278;2022-09-25T03:46:36;71432.41;;;7.11;97.08
19759;BME280;10038;42.662;23.278;2022-09-25T03:49:03;71415.31;;;6.99;97.31
19759;BME280;10038;42.662;23.278;2022-09-25T03:51:30;71414.72;;;6.98;97.96
19759;BME280;10038;42.662;23.278;2022-09-25T03:53:59;71439.31;;;7.18;97.28
19759;BME280;10038;42.662;23.278;2022-09-25T03:56:28;71413.00;;;6.97;98.01
19759;BME280;10038;42.662;23.278;2022-09-25T03:58:56;71425.69;;;7.08;97.72
19759;BME280;10038;42.662;23.278;2022-09-25T04:01:24;71441.25;;;7.22;97.39
19759;BME280;10038;42.662;23.278;2022-09-25T04:03:51;71422.03;;;7.02;97.27
19759;BME280;10038;42.662;23.278;2022-09-25T04:06:19;71429.16;;;7.11;97.26
19759;BME280;10038;42.662;23.278;2022-09-25T04:08:47;71416.84;;;6.98;97.36
19759;BME280;10038;42.662;23.278;2022-09-25T04:11:16;71427.41;;;7.09;96.83
19759;BME280;10038;42.662;23.278;2022-09-25T04:13:43;71425.88;;;7.10;96.82
19759;BME280;10038;42.662;23.278;2022-09-25T04:16:11;71424.16;;;7.02;97.41
19759;BME280;10038;42.662;23.278;2022-09-25T04:18:41;71419.34;;;7.02;97.54
19759;BME280;10038;42.662;23.278;2022-09-25T04:21:09;71403.22;;;6.88;98.14
19759;BME280;10038;42.662;23.278;2022-09-25T04:23:37;71413.22;;;6.92;98.06
19759;BME280;10038;42.662;23.278;2022-09-25T04:26:05;71384.22;;;6.72;98.43
19759;BME280;10038;42.662;23.278;2022-09-25T04:28:33;71390.53;;;6.77;98.79
19759;BME280;10038;42.662;23.278;2022-09-25T04:31:00;71402.44;;;6.85;98.41
19759;BME280;10038;42.662;23.278;2022-09-25T04:33:28;71392.06;;;6.76;98.30
19759;BME280;10038;42.662;23.278;2022-09-25T04:36:08;71382.50;;;6.70;99.01
19759;BME280;10038;42.662;23.278;2022-09-25T04:38:35;71366.91;;;6.57;99.95
19759;BME280;10038;42.662;23.278;2022-09-25T04:41:03;71383.84;;;6.67;99.40
19759;BME280;10038;42.662;23.278;2022-09-25T04:43:30;71386.69;;;6.76;99.50
19759;BME280;10038;42.662;23.278;2022-09-25T04:46:01;71396.88;;;6.83;98.34
19759;BME280;10038;42.662;23.278;2022-09-25T04:48:28;71405.50;;;6.90;97.96
19759;BME280;10038;42.662;23.278;2022-09-25T04:50:55;71429.53;;;7.09;96.79
19759;BME280;10038;42.662;23.278;2022-09-25T04:53:22;71418.19;;;7.01;97.30
19759;BME280;10038;42.662;23.278;2022-09-25T04:55:50;71430.09;;;7.09;97.28
19759;BME280;10038;42.662;23.278;2022-09-25T04:58:19;71448.16;;;7.28;97.11
19759;BME280;10038;42.662;23.278;2022-09-25T05:00:45;71451.22;;;7.33;97.16
19759;BME280;10038;42.662;23.278;2022-09-25T05:03:14;71469.13;;;7.41;96.61
19759;BME280;10038;42.662;23.278;2022-09-25T05:05:40;71489.66;;;7.64;96.24
19759;BME280;10038;42.662;23.278;2022-09-25T05:08:08;71510.00;;;7.84;95.33
19759;BME280;10038;42.662;23.278;2022-09-25T05:10:35;71531.56;;;7.98;94.44
19759;BME280;10038;42.662;23.278;2022-09-25T05:13:04;71547.91;;;8.15;94.25
19759;BME280;10038;42.662;23.278;2022-09-25T05:15:33;71555.97;;;8.22;92.97
19759;BME280;10038;42.662;23.278;2022-09-25T05:18:02;71565.78;;;8.30;93.09
19759;BME280;10038;42.662;23.278;2022-09-25T05:20:31;71545.00;;;8.12;92.37
19759;BME280;10038;42.662;23.278;2022-09-25T05:22:58;71585.41;;;8.48;91.53
19759;BME280;10038;42.662;23.278;2022-09-25T05:25:26;71585.00;;;8.50;91.82
19759;BME280;10038;42.662;23.278;2022-09-25T05:27:53;71583.09;;;8.46;91.51
19759;BME280;10038;42.662;23.278;2022-09-25T05:30:22;71610.22;;;8.69;91.46
19759;BME280;10038;42.662;23.278;2022-09-25T05:32:50;71580.78;;;8.44;90.92
19759;BME280;10038;42.662;23.278;2022-09-25T05:35:17;71630.00;;;8.89;90.13
19759;BME280;10038;42.662;23.278;2022-09-25T05:37:45;71647.72;;;9.02;89.99
19759;BME280;10038;42.662;23.278;2022-09-25T05:40:13;71671.56;;;9.25;89.65
19759;BME280;10038;42.662;23.278;2022-09-25T05:42:41;71684.66;;;9.34;89.41
19759;BME280;10038;42.662;23.278;2022-09-25T05:45:09;71706.59;;;9.54;88.34
19759;BME280;10038;42.662;23.278;2022-09-25T05:47:36;71685.22;;;9.35;87.71
19759;BME280;10038;42.662;23.278;2022-09-25T05:50:04;71737.78;;;9.81;86.99
19759;BME280;10038;42.662;23.278;2022-09-25T05:52:31;71776.31;;;10.12;85.63
19759;BME280;10038;42.662;23.278;2022-09-25T05:54:59;71757.41;;;9.98;84.83
19759;BME280;10038;42.662;23.278;2022-09-25T05:57:29;71820.59;;;10.55;84.48
19759;BME280;10038;42.662;23.278;2022-09-25T05:59:56;71861.63;;;10.91;82.62
19759;BME280;10038;42.662;23.278;2022-09-25T06:02:23;71870.47;;;11.01;82.23
19759;BME280;10038;42.662;23.278;2022-09-25T06:04:50;71910.78;;;11.34;80.85
19759;BME280;10038;42.662;23.278;2022-09-25T06:07:16;71913.25;;;11.39;79.81
19759;BME280;10038;42.662;23.278;2022-09-25T06:09:43;71932.16;;;11.53;78.76
19759;BME280;10038;42.662;23.278;2022-09-25T06:12:11;71948.91;;;11.67;78.13
19759;BME280;10038;42.662;23.278;2022-09-25T06:14:38;71966.06;;;11.87;77.51
19759;BME280;10038;42.662;23.278;2022-09-25T06:17:05;71991.59;;;12.02;77.42
19759;BME280;10038;42.662;23.278;2022-09-25T06:19:32;72005.25;;;12.19;75.96
19759;BME280;10038;42.662;23.278;2022-09-25T06:21:59;72003.69;;;12.20;74.26
19759;BME280;10038;42.662;23.278;2022-09-25T06:24:26;72017.63;;;12.25;73.68
19759;BME280;10038;42.662;23.278;2022-09-25T06:26:53;72036.50;;;12.46;73.35
19759;BME280;10038;42.662;23.278;2022-09-25T06:29:21;72054.84;;;12.60;73.03
19759;BME280;10038;42.662;23.278;2022-09-25T06:31:48;72076.25;;;12.78;73.03
19759;BME280;10038;42.662;23.278;2022-09-25T06:34:14;72078.56;;;12.80;71.48
19759;BME280;10038;42.662;23.278;2022-09-25T06:36:41;72107.72;;;13.08;71.26
19759;BME280;10038;42.662;23.278;2022-09-25T06:39:08;72386.06;;;15.60;64.48
19759;BME280;10038;42.662;23.278;2022-09-25T06:41:34;72729.94;;;18.58;52.70
19759;BME280;10038;42.662;23.278;2022-09-25T06:44:01;73022.19;;;21.11;43.76
19759;BME280;10038;42.662;23.278;2022-09-25T06:46:30;73195.47;;;22.64;40.14
19759;BME280;10038;42.662;23.278;2022-09-25T06:48:56;73345.31;;;23.91;37.36
19759;BME280;10038;42.662;23.278;2022-09-25T06:51:24;73451.63;;;24.83;35.09
19759;BME280;10038;42.662;23.278;2022-09-25T06:53:57;73478.03;;;25.08;34.02
19759;BME280;10038;42.662;23.278;2022-09-25T06:56:24;73375.09;;;24.17;35.27
19759;BME280;10038;42.662;23.278;2022-09-25T06:58:51;73162.09;;;22.32;37.98
19759;BME280;10038;42.662;23.278;2022-09-25T07:01:17;73122.44;;;21.98;38.84
19759;BME280;10038;42.662;23.278;2022-09-25T07:03:45;73352.31;;;23.97;36.16
19759;BME280;10038;42.662;23.278;2022-09-25T07:06:13;73697.88;;;26.98;31.84
19759;BME280;10038;42.662;23.278;2022-09-25T07:08:41;73907.03;;;28.80;28.61
19759;BME280;10038;42.662;23.278;2022-09-25T07:11:10;74011.31;;;29.70;27.34
19759;BME280;10038;42.662;23.278;2022-09-25T07:13:37;73955.09;;;29.21;27.36
19759;BME280;10038;42.662;23.278;2022-09-25T07:16:07;73837.34;;;28.20;28.33
19759;BME280;10038;42.662;23.278;2022-09-25T07:18:35;74068.06;;;30.16;25.97
19759;BME280;10038;42.662;23.278;2022-09-25T07:21:06;74258.84;;;31.83;24.92
19759;BME280;10038;42.662;23.278;2022-09-25T07:23:33;74388.72;;;32.97;23.72
19759;BME280;10038;42.662;23.278;2022-09-25T07:26:04;74260.03;;;31.84;23.64
19759;BME280;10038;42.662;23.278;2022-09-25T07:28:32;74166.75;;;31.04;24.81
19759;BME280;10038;42.662;23.278;2022-09-25T07:31:09;74138.00;;;30.79;24.42
19759;BME280;10038;42.662;23.278;2022-09-25T07:33:35;74244.78;;;31.71;24.20
19759;BME280;10038;42.662;23.278;2022-09-25T07:36:04;74153.25;;;30.92;24.88
19759;BME280;10038;42.662;23.278;2022-09-25T07:38:31;74231.84;;;31.60;24.22
19759;BME280;10038;42.662;23.278;2022-09-25T07:40:58;74505.19;;;33.99;21.83
19759;BME280;10038;42.662;23.278;2022-09-25T07:43:25;74461.13;;;33.61;21.87
19759;BME280;10038;42.662;23.278;2022-09-25T07:45:52;74550.31;;;34.35;21.49
19759;BME280;10038;42.662;23.278;2022-09-25T07:48:18;74338.09;;;32.51;22.55
19759;BME280;10038;42.662;23.278;2022-09-25T07:50:47;74420.91;;;33.22;22.12
19759;BME280;10038;42.662;23.278;2022-09-25T07:53:16;74448.66;;;33.48;21.54
19759;BME280;10038;42.662;23.278;2022-09-25T07:55:43;74386.84;;;32.93;22.41
19759;BME280;10038;42.662;23.278;2022-09-25T07:58:10;74484.38;;;33.76;21.13
19759;BME280;10038;42.662;23.278;2022-09-25T08:00:37;74503.16;;;33.93;21.58
19759;BME280;10038;42.662;23.278;2022-09-25T08:03:05;74452.03;;;33.49;21.40
19759;BME280;10038;42.662;23.278;2022-09-25T08:05:35;74544.34;;;34.28;21.83
19759;BME280;10038;42.662;23.278;2022-09-25T08:08:02;74423.97;;;33.27;22.37
19759;BME280;10038;42.662;23.278;2022-09-25T08:10:30;74431.50;;;33.31;21.69
19759;BME280;10038;42.662;23.278;2022-09-25T08:12:57;74349.84;;;32.61;22.65
19759;BME280;10038;42.662;23.278;2022-09-25T08:15:24;74306.41;;;32.24;22.05
19759;BME280;10038;42.662;23.278;2022-09-25T08:17:51;74417.41;;;33.19;21.80
19759;BME280;10038;42.662;23.278;2022-09-25T08:20:18;74405.66;;;33.09;21.73
19759;BME280;10038;42.662;23.278;2022-09-25T08:22:45;74520.81;;;34.08;20.98
19759;BME280;10038;42.662;23.278;2022-09-25T08:25:11;74548.56;;;34.34;20.66
19759;BME280;10038;42.662;23.278;2022-09-25T08:27:40;74567.38;;;34.50;20.97
19759;BME280;10038;42.662;23.278;2022-09-25T08:30:09;74534.47;;;34.22;20.96
19759;BME280;10038;42.662;23.278;2022-09-25T08:32:38;74469.09;;;33.63;21.33
19759;BME280;10038;42.662;23.278;2022-09-25T08:35:06;74736.75;;;35.95;19.71
19759;BME280;10038;42.662;23.278;2022-09-25T08:37:32;74809.75;;;36.58;18.94
19759;BME280;10038;42.662;23.278;2022-09-25T08:40:00;74582.66;;;34.63;20.01
19759;BME280;10038;42.662;23.278;2022-09-25T08:42:34;74776.28;;;36.32;19.08
19759;BME280;10038;42.662;23.278;2022-09-25T08:45:06;74568.41;;;34.49;20.14
19759;BME280;10038;42.662;23.278;2022-09-25T08:48:08;74610.28;;;34.87;20.41
19759;BME280;10038;42.662;23.278;2022-09-25T08:50:57;74554.91;;;34.37;20.43
19759;BME280;10038;42.662;23.278;2022-09-25T08:53:27;74605.47;;;34.80;19.44
19759;BME280;10038;42.662;23.278;2022-09-25T08:55:54;74651.94;;;35.20;19.15
19759;BME280;10038;42.662;23.278;2022-09-25T08:58:44;74561.97;;;34.43;19.79
19759;BME280;10038;42.662;23.278;2022-09-25T09:01:14;74609.00;;;34.83;20.31
19759;BME280;10038;42.662;23.278;2022-09-25T09:03:47;74554.91;;;34.37;21.00
19759;BME280;10038;42.662;23.278;2022-09-25T09:06:16;74596.06;;;34.72;19.95
19759;BME280;10038;42.662;23.278;2022-09-25T09:08:47;74576.66;;;34.56;19.86
19759;BME280;10038;42.662;23.278;2022-09-25T09:11:18;74652.63;;;35.23;19.18
19759;BME280;10038;42.662;23.278;2022-09-25T09:13:51;74742.63;;;36.00;18.91
19759;BME280;10038;42.662;23.278;2022-09-25T09:16:22;74630.16;;;35.02;19.30
19759;BME280;10038;42.662;23.278;2022-09-25T09:18:53;74552.66;;;34.37;19.84
19759;BME280;10038;42.662;23.278;2022-09-25T09:21:30;74399.78;;;33.04;21.50
19759;BME280;10038;42.662;23.278;2022-09-25T09:24:04;74496.72;;;33.87;20.95
19759;BME280;10038;42.662;23.278;2022-09-25T09:26:39;74671.34;;;35.37;20.22
19759;BME280;10038;42.662;23.278;2022-09-25T09:29:37;74479.09;;;33.72;20.34
19759;BME280;10038;42.662;23.278;2022-09-25T09:32:21;74293.63;;;32.15;22.04
19759;BME280;10038;42.662;23.278;2022-09-25T09:35:01;74192.09;;;31.28;24.15
19759;BME280;10038;42.662;23.278;2022-09-25T09:37:39;74220.72;;;31.50;24.44
19759;BME280;10038;42.662;23.278;2022-09-25T09:40:21;74123.31;;;30.66;23.39
19759;BME280;10038;42.662;23.278;2022-09-25T09:42:55;74282.34;;;32.03;22.73
19759;BME280;10038;42.662;23.278;2022-09-25T09:45:32;74466.75;;;33.61;21.12
19759;BME280;10038;42.662;23.278;2022-09-25T09:48:11;74534.47;;;34.22;20.56
19759;BME280;10038;42.662;23.278;2022-09-25T09:50:42;74371.59;;;32.80;21.16
19759;BME280;10038;42.662;23.278;2022-09-25T09:53:22;74265.31;;;31.88;22.82
19759;BME280;10038;42.662;23.278;2022-09-25T09:55:55;74020.56;;;29.75;23.69
19759;BME280;10038;42.662;23.278;2022-09-25T09:58:26;74097.97;;;30.42;23.83
19759;BME280;10038;42.662;23.278;2022-09-25T10:00:54;74183.75;;;31.18;23.56
19759;BME280;10038;42.662;23.278;2022-09-25T10:03:24;74110.41;;;30.55;23.61
19759;BME280;10038;42.662;23.278;2022-09-25T10:05:56;74405.66;;;33.09;22.70
19759;BME280;10038;42.662;23.278;2022-09-25T10:08:23;74326.25;;;32.38;21.69
19759;BME280;10038;42.662;23.278;2022-09-25T10:10:52;74294.69;;;32.14;22.66
19759;BME280;10038;42.662;23.278;2022-09-25T10:13:22;74084.03;;;30.32;24.21
19759;BME280;10038;42.662;23.278;2022-09-25T10:15:52;73813.78;;;27.97;25.89
19759;BME280;10038;42.662;23.278;2022-09-25T10:18:24;73646.84;;;26.51;28.50
19759;BME280;10038;42.662;23.278;2022-09-25T10:20:58;73553.31;;;25.70;29.09
19759;BME280;10038;42.662;23.278;2022-09-25T10:23:34;73798.56;;;27.84;26.73
19759;BME280;10038;42.662;23.278;2022-09-25T10:26:09;74220.13;;;31.49;22.90
19759;BME280;10038;42.662;23.278;2022-09-25T10:28:48;74322.25;;;32.37;21.66
19759;BME280;10038;42.662;23.278;2022-09-25T10:31:16;74543.16;;;34.27;19.75
19759;BME280;10038;42.662;23.278;2022-09-25T10:33:59;74518.59;;;34.08;20.78
19759;BME280;10038;42.662;23.278;2022-09-25T10:36:39;74473.81;;;33.67;20.53
19759;BME280;10038;42.662;23.278;2022-09-25T10:39:25;74442.53;;;33.38;21.58
19759;BME280;10038;42.662;23.278;2022-09-25T10:41:53;74459.69;;;33.55;20.69
19759;BME280;10038;42.662;23.278;2022-09-25T10:44:21;74629.69;;;35.04;19.52
19759;BME280;10038;42.662;23.278;2022-09-25T10:46:49;74577.84;;;34.57;19.40
19759;BME280;10038;42.662;23.278;2022-09-25T10:49:44;74561.97;;;34.43;19.56
19759;BME280;10038;42.662;23.278;2022-09-25T10:52:45;74457.81;;;33.51;20.61
19759;BME280;10038;42.662;23.278;2022-09-25T10:55:22;74493.78;;;33.84;19.80
19759;BME280;10038;42.662;23.278;2022-09-25T10:57:56;74699.09;;;35.63;18.59
19759;BME280;10038;42.662;23.278;2022-09-25T11:00:26;74695.59;;;35.60;18.83
19759;BME280;10038;42.662;23.278;2022-09-25T11:02:55;74659.59;;;35.27;18.94
19759;BME280;10038;42.662;23.278;2022-09-25T11:05:28;74667.31;;;35.36;18.79
19759;BME280;10038;42.662;23.278;2022-09-25T11:07:56;74786.19;;;36.38;19.06
19759;BME280;10038;42.662;23.278;2022-09-25T11:10:25;74868.13;;;37.10;17.26
19759;BME280;10038;42.662;23.278;2022-09-25T11:12:53;74767.84;;;36.20;18.04
19759;BME280;10038;42.662;23.278;2022-09-25T11:15:22;74686.03;;;35.49;18.77
19759;BME280;10038;42.662;23.278;2022-09-25T11:17:52;74655.47;;;35.23;19.21
19759;BME280;10038;42.662;23.278;2022-09-25T11:20:23;74770.78;;;36.22;17.69
19759;BME280;10038;42.662;23.278;2022-09-25T11:23:02;74704.28;;;35.65;17.96
19759;BME280;10038;42.662;23.278;2022-09-25T11:25:37;74783.81;;;36.36;17.99
19759;BME280;10038;42.662;23.278;2022-09-25T11:28:11;74810.22;;;36.56;17.85
19759;BME280;10038;42.662;23.278;2022-09-25T11:30:45;74604.28;;;34.79;18.22
19759;BME280;10038;42.662;23.278;2022-09-25T11:33:21;74592.56;;;34.69;19.68
19759;BME280;10038;42.662;23.278;2022-09-25T11:35:52;74663.13;;;35.30;18.60
19759;BME280;10038;42.662;23.278;2022-09-25T11:38:31;74679.56;;;35.44;18.14
19759;BME280;10038;42.662;23.278;2022-09-25T11:41:24;74627.34;;;35.02;18.96
19759;BME280;10038;42.662;23.278;2022-09-25T11:44:03;74621.34;;;34.94;18.97
19759;BME280;10038;42.662;23.278;2022-09-25T11:46:38;74583.13;;;34.61;18.57
19759;BME280;10038;42.662;23.278;2022-09-25T11:49:15;74594.31;;;34.71;19.08
19759;BME280;10038;42.662;23.278;2022-09-25T11:54:47;74512.59;;;34.01;18.97
19759;BME280;10038;42.662;23.278;2022-09-25T11:57:22;74390.81;;;32.94;20.65
19759;BME280;10038;42.662;23.278;2022-09-25T12:00:03;74593.13;;;34.70;19.26
19759;BME280;10038;42.662;23.278;2022-09-25T12:02:57;74612.50;;;34.86;20.30
19759;BME280;10038;42.662;23.278;2022-09-25T12:05:52;74649.00;;;35.18;18.38
19759;BME280;10038;42.662;23.278;2022-09-25T12:08:34;74752.66;;;36.09;17.13
19759;BME280;10038;42.662;23.278;2022-09-25T12:11:10;74627.22;;;34.99;18.06
19759;BME280;10038;42.662;23.278;2022-09-25T12:13:42;74503.16;;;33.93;18.75
19759;BME280;10038;42.662;23.278;2022-09-25T12:16:17;74249.94;;;31.73;20.93
19759;BME280;10038;42.662;23.278;2022-09-25T12:18:59;74309.34;;;32.26;20.72
19759;BME280;10038;42.662;23.278;2022-09-25T12:21:33;74389.19;;;32.95;20.27
19759;BME280;10038;42.662;23.278;2022-09-25T12:24:11;74302.28;;;32.20;21.20
19759;BME280;10038;42.662;23.278;2022-09-25T12:26:47;74311.69;;;32.28;20.85
19759;BME280;10038;42.662;23.278;2022-09-25T12:29:27;74459.69;;;33.55;19.60
19759;BME280;10038;42.662;23.278;2022-09-25T12:32:04;74454.41;;;33.51;19.94
19759;BME280;10038;42.662;23.278;2022-09-25T12:34:45;74341.06;;;32.53;20.99
19759;BME280;10038;42.662;23.278;2022-09-25T12:37:18;74185.25;;;31.15;22.11
19759;BME280;10038;42.662;23.278;2022-09-25T12:39:49;74030.56;;;29.84;23.33
19759;BME280;10038;42.662;23.278;2022-09-25T12:42:23;74210.72;;;31.41;21.85
19759;BME280;10038;42.662;23.278;2022-09-25T12:44:54;74183.63;;;31.16;21.73
19759;BME280;10038;42.662;23.278;2022-09-25T12:47:28;74176.00;;;31.09;22.07
19759;BME280;10038;42.662;23.278;2022-09-25T12:50:01;74264.72;;;31.88;21.46
19759;BME280;10038;42.662;23.278;2022-09-25T12:52:33;74280.00;;;32.01;21.27
19759;BME280;10038;42.662;23.278;2022-09-25T12:55:03;74445.59;;;33.43;19.50
19759;BME280;10038;42.662;23.278;2022-09-25T12:57:37;74409.19;;;33.12;21.11
19759;BME280;10038;42.662;23.278;2022-09-25T13:00:22;74472.16;;;33.68;20.53
19759;BME280;10038;42.662;23.278;2022-09-25T13:02:56;74390.81;;;32.94;20.98
19759;BME280;10038;42.662;23.278;2022-09-25T13:05:28;74248.75;;;31.72;20.93
19759;BME280;10038;42.662;23.278;2022-09-25T13:08:03;74315.69;;;32.29;21.10
19759;BME280;10038;42.662;23.278;2022-09-25T13:10:38;74349.72;;;32.58;21.31
19759;BME280;10038;42.662;23.278;2022-09-25T13:13:23;74374.41;;;32.80;20.87
19759;BME280;10038;42.662;23.278;2022-09-25T13:15:53;74363.84;;;32.71;20.82
19759;BME280;10038;42.662;23.278;2022-09-25T13:18:22;74079.22;;;30.26;22.37
19759;BME280;10038;42.662;23.278;2022-09-25T13:20:51;74115.13;;;30.59;22.92
19759;BME280;10038;42.662;23.278;2022-09-25T13:23:30;74065.84;;;30.17;22.36